Time;durP1;ratioP1;P1;durP2;ratioP2;P2;SDS_P1;SDS_P2;PMS_P1;PMS_P2;Temp;Humidity;BMP_temperature;BMP_pressure;BME280_temperature;BME280_humidity;BME280_pressure;Samples;Min_cycle;Max_cycle;Signal;HPM_P1;HPM_P2
2022/03/09 00:00:44;;;;;;;4.72;2.92;;;3.40;99.90;;;;;;5045220;28;20123;-60
2022/03/09 00:03:09;;;;;;;3.75;3.35;;;3.40;99.90;;;;;;5042926;28;20125;-60
2022/03/09 00:05:35;;;;;;;5.30;3.25;;;3.20;99.80;;;;;;5041870;28;20132;-61
2022/03/09 00:08:00;;;;;;;4.68;2.47;;;3.10;99.90;;;;;;5022672;28;20127;-60
2022/03/09 00:10:27;;;;;;;3.60;3.13;;;2.90;99.90;;;;;;5016882;28;20045;-60
2022/03/09 00:12:52;;;;;;;3.97;2.97;;;2.70;99.90;;;;;;5041522;28;20127;-60
2022/03/09 00:15:18;;;;;;;4.47;3.38;;;2.50;99.90;;;;;;5036678;28;20123;-60
2022/03/09 00:17:43;;;;;;;4.75;3.38;;;2.30;99.90;;;;;;5018210;28;20055;-60
2022/03/09 00:20:09;;;;;;;7.55;3.63;;;2.20;99.90;;;;;;5032786;28;20139;-60
2022/03/09 00:22:35;;;;;;;3.13;2.50;;;2.10;99.90;;;;;;5038544;28;20041;-60
2022/03/09 00:25:02;;;;;;;4.47;3.65;;;2.10;99.90;;;;;;5054475;28;20819;-60
2022/03/09 00:27:29;;;;;;;4.40;2.83;;;2.20;99.90;;;;;;5056592;28;20059;-61
2022/03/09 00:29:55;;;;;;;5.53;2.92;;;2.20;99.90;;;;;;5038074;28;20052;-61
2022/03/09 00:32:21;;;;;;;6.43;3.00;;;2.30;99.90;;;;;;5055697;28;20090;-61
2022/03/09 00:34:46;;;;;;;5.63;2.83;;;2.30;99.90;;;;;;5056506;28;20079;-60
2022/03/09 00:37:12;;;;;;;4.70;2.80;;;2.30;99.90;;;;;;5056452;28;20078;-61
2022/03/09 00:39:37;;;;;;;4.53;3.25;;;2.40;99.90;;;;;;5033909;28;20056;-60
2022/03/09 00:42:03;;;;;;;3.88;2.63;;;2.30;99.90;;;;;;5017930;28;20060;-60
2022/03/09 00:44:30;;;;;;;4.07;3.20;;;2.30;99.90;;;;;;5018045;28;20056;-60
2022/03/09 00:46:56;;;;;;;3.58;3.20;;;2.30;99.90;;;;;;5035256;28;20036;-60
2022/03/09 00:49:22;;;;;;;6.85;4.20;;;2.30;99.90;;;;;;5035720;28;20056;-62
2022/03/09 00:51:47;;;;;;;6.35;4.10;;;3.50;99.90;;;;;;5035973;28;20080;-60
2022/03/09 00:54:13;;;;;;;4.55;3.38;;;2.20;99.90;;;;;;5032147;28;20044;-60
2022/03/09 00:56:38;;;;;;;4.82;3.85;;;2.10;99.90;;;;;;5055758;28;20055;-61
2022/03/09 00:59:04;;;;;;;7.72;4.30;;;2.00;99.90;;;;;;5055835;28;20064;-61
2022/03/09 01:01:30;;;;;;;5.95;4.38;;;1.90;99.90;;;;;;5027342;28;20150;-60
2022/03/09 01:03:55;;;;;;;5.05;4.15;;;1.80;99.90;;;;;;5042145;28;20420;-61
2022/03/09 01:06:21;;;;;;;4.30;3.47;;;1.80;99.90;;;;;;5053608;28;20783;-60
2022/03/09 01:08:46;;;;;;;6.68;3.75;;;1.70;99.90;;;;;;5054209;28;20044;-61
2022/03/09 01:11:12;;;;;;;3.85;3.50;;;1.50;99.90;;;;;;5037985;28;20129;-60
2022/03/09 01:13:38;;;;;;;4.13;3.72;;;1.40;99.90;;;;;;5055417;28;20051;-60
2022/03/09 01:16:04;;;;;;;9.50;4.57;;;1.30;99.90;;;;;;5036723;28;20051;-60
2022/03/09 01:18:29;;;;;;;4.93;4.20;;;1.20;99.90;;;;;;5037682;28;20118;-60
2022/03/09 01:20:55;;;;;;;4.70;3.45;;;1.10;99.90;;;;;;5037707;28;20189;-60
2022/03/09 01:23:20;;;;;;;3.63;3.30;;;1.20;99.90;;;;;;5032789;28;20051;-61
2022/03/09 01:25:46;;;;;;;5.05;3.33;;;1.20;99.90;;;;;;5017633;28;20053;-60
2022/03/09 01:28:11;;;;;;;6.38;3.50;;;1.80;99.90;;;;;;5033793;28;20669;-60
2022/03/09 01:30:37;;;;;;;6.47;3.28;;;1.30;99.90;;;;;;5035188;28;20044;-60
2022/03/09 01:33:03;;;;;;;5.30;3.75;;;1.30;99.90;;;;;;5035490;28;20072;-62
2022/03/09 01:35:28;;;;;;;8.07;3.85;;;2.10;99.90;;;;;;5038536;28;20618;-61
2022/03/09 01:37:54;;;;;;;3.22;3.03;;;1.20;99.90;;;;;;5046755;28;20514;-60
2022/03/09 01:40:19;;;;;;;4.43;4.00;;;1.20;99.90;;;;;;5058801;28;20052;-60
2022/03/09 01:42:45;;;;;;;4.50;3.28;;;1.10;99.90;;;;;;5058472;28;20839;-60
2022/03/09 01:45:12;;;;;;;3.65;3.20;;;1.20;99.90;;;;;;5058999;28;20076;-59
2022/03/09 01:47:38;;;;;;;3.97;3.53;;;1.20;99.90;;;;;;5058707;28;20048;-61
2022/03/09 01:50:05;;;;;;;5.00;3.33;;;1.30;99.90;;;;;;5057529;28;20048;-62
2022/03/09 01:52:31;;;;;;;3.85;3.03;;;1.40;99.90;;;;;;5058497;28;20051;-60
2022/03/09 01:54:57;;;;;;;5.57;3.10;;;1.50;99.90;;;;;;5058004;28;20048;-59
2022/03/09 01:57:23;;;;;;;3.50;3.20;;;1.50;99.90;;;;;;5057913;28;20051;-61
2022/03/09 01:59:50;;;;;;;3.50;3.20;;;1.60;99.90;;;;;;5058490;28;20067;-60
2022/03/09 02:02:16;;;;;;;5.78;3.55;;;1.60;99.90;;;;;;5058305;28;20040;-60
2022/03/09 02:04:43;;;;;;;6.22;3.70;;;1.70;99.90;;;;;;5057672;28;20055;-60
2022/03/09 02:07:09;;;;;;;6.82;3.17;;;1.80;99.90;;;;;;5040650;28;20194;-60
2022/03/09 02:09:44;;;;;;;3.80;3.13;;;1.80;99.90;;;;;;5058384;28;20040;-60
2022/03/09 02:12:13;;;;;;;3.30;3.05;;;1.80;99.90;;;;;;5036435;28;20053;-60
2022/03/09 02:14:46;;;;;;;7.38;3.72;;;1.90;99.90;;;;;;5038298;28;20049;-60
2022/03/09 02:17:15;;;;;;;3.55;2.80;;;1.90;99.90;;;;;;5038316;28;20136;-60
2022/03/09 02:19:43;;;;;;;5.55;3.58;;;1.80;99.90;;;;;;5037334;28;20055;-60
2022/03/09 02:22:24;;;;;;;5.10;3.58;;;1.80;99.90;;;;;;5033417;28;20044;-60
2022/03/09 02:24:51;;;;;;;6.80;3.30;;;1.80;99.90;;;;;;5029138;28;20289;-60
2022/03/09 02:27:20;;;;;;;6.00;4.45;;;1.90;99.90;;;;;;5053494;28;20119;-60
2022/03/09 02:29:49;;;;;;;5.05;3.60;;;1.90;99.90;;;;;;5057809;28;20079;-60
2022/03/09 02:32:15;;;;;;;4.03;3.55;;;1.80;99.90;;;;;;5039849;28;20063;-61
2022/03/09 02:34:40;;;;;;;5.40;4.28;;;1.90;99.90;;;;;;5058618;28;20052;-60
2022/03/09 02:37:06;;;;;;;7.10;4.45;;;1.90;99.90;;;;;;5038364;28;20051;-60
2022/03/09 02:39:32;;;;;;;5.10;4.00;;;1.80;99.90;;;;;;5052325;28;20127;-60
2022/03/09 02:41:57;;;;;;;4.63;4.20;;;1.70;99.90;;;;;;5057643;28;20052;-60
2022/03/09 02:44:23;;;;;;;5.65;4.03;;;1.70;99.90;;;;;;5038731;28;20056;-60
2022/03/09 02:46:49;;;;;;;8.05;4.60;;;1.70;99.90;;;;;;5056879;28;20118;-60
2022/03/09 02:49:15;;;;;;;6.13;3.25;;;1.70;99.90;;;;;;5057932;28;20072;-61
2022/03/09 02:51:41;;;;;;;4.53;3.70;;;1.70;99.90;;;;;;5052214;28;21132;-61
2022/03/09 02:54:06;;;;;;;4.90;3.25;;;1.60;99.90;;;;;;5057131;28;20488;-62
2022/03/09 02:56:32;;;;;;;5.53;4.72;;;1.60;99.90;;;;;;5058296;28;20130;-61
2022/03/09 02:58:58;;;;;;;11.60;6.20;;;1.60;99.90;;;;;;5046644;28;22002;-61
2022/03/09 03:01:23;;;;;;;5.03;3.80;;;1.60;99.90;;;;;;5056605;28;20073;-61
2022/03/09 03:03:49;;;;;;;8.70;3.97;;;1.60;99.90;;;;;;5057761;28;20044;-61
2022/03/09 03:06:15;;;;;;;6.07;4.55;;;1.60;99.90;;;;;;5058475;28;20050;-60
2022/03/09 03:08:41;;;;;;;7.93;4.25;;;1.60;99.90;;;;;;5057977;28;20055;-60
2022/03/09 03:11:08;;;;;;;4.68;3.80;;;1.60;99.90;;;;;;5058204;28;20033;-61
2022/03/09 03:13:35;;;;;;;5.97;4.10;;;1.50;99.90;;;;;;5037150;28;20052;-61
2022/03/09 03:16:01;;;;;;;6.03;3.92;;;1.50;99.90;;;;;;5057807;28;20044;-60
2022/03/09 03:18:27;;;;;;;4.30;3.92;;;1.50;99.90;;;;;;5036146;28;20056;-60
2022/03/09 03:20:54;;;;;;;5.43;4.18;;;1.50;99.90;;;;;;5037260;28;20096;-59
2022/03/09 03:23:28;;;;;;;6.75;4.30;;;1.50;99.90;;;;;;5050033;28;20052;-60
2022/03/09 03:25:54;;;;;;;8.02;4.38;;;1.50;99.90;;;;;;5036632;28;20056;-59
2022/03/09 03:28:21;;;;;;;6.15;3.67;;;1.60;99.90;;;;;;5040315;28;20040;-60
2022/03/09 03:30:47;;;;;;;8.52;4.47;;;1.50;99.90;;;;;;5057070;28;20045;-60
2022/03/09 03:33:15;;;;;;;6.25;3.90;;;1.50;99.90;;;;;;5039722;28;20049;-60
2022/03/09 03:35:41;;;;;;;6.97;4.30;;;1.50;99.90;;;;;;5056690;28;20048;-60
2022/03/09 03:38:07;;;;;;;6.22;4.10;;;1.50;99.90;;;;;;5057402;28;20109;-60
2022/03/09 03:40:33;;;;;;;6.68;4.03;;;1.50;99.90;;;;;;5057212;28;20729;-60
2022/03/09 03:42:58;;;;;;;6.03;4.32;;;1.60;99.90;;;;;;5056576;28;20059;-60
2022/03/09 03:45:24;;;;;;;5.25;3.63;;;1.50;99.90;;;;;;5057386;28;20131;-60
2022/03/09 03:47:50;;;;;;;6.95;4.68;;;1.60;99.90;;;;;;5038546;28;20052;-60
2022/03/09 03:50:16;;;;;;;5.18;3.70;;;1.60;99.90;;;;;;5056134;28;20048;-60
2022/03/09 03:52:41;;;;;;;7.50;4.35;;;1.50;99.90;;;;;;5039166;28;20133;-60
2022/03/09 03:55:07;;;;;;;4.93;3.67;;;1.50;99.90;;;;;;5039473;28;20048;-60
2022/03/09 03:57:33;;;;;;;6.78;4.13;;;0.80;99.90;;;;;;5037703;28;20056;-61
2022/03/09 03:59:58;;;;;;;5.13;3.72;;;1.40;99.90;;;;;;5056886;28;20036;-60
2022/03/09 04:02:24;;;;;;;4.55;3.92;;;1.30;99.90;;;;;;5057174;28;20055;-60
2022/03/09 04:04:52;;;;;;;6.40;4.70;;;1.30;99.90;;;;;;5056315;28;20404;-60
2022/03/09 04:07:18;;;;;;;8.25;4.28;;;1.10;99.90;;;;;;5039474;28;20681;-60
2022/03/09 04:09:44;;;;;;;8.07;5.10;;;1.10;99.90;;;;;;5056715;28;20048;-60
2022/03/09 04:12:10;;;;;;;5.88;4.22;;;1.00;99.90;;;;;;5055854;28;20044;-60
2022/03/09 04:14:36;;;;;;;6.95;3.75;;;0.90;99.90;;;;;;5056558;28;20036;-60
2022/03/09 04:17:01;;;;;;;6.13;4.93;;;0.90;99.90;;;;;;5037763;28;20044;-60
2022/03/09 04:19:27;;;;;;;6.50;4.50;;;0.90;99.90;;;;;;5056183;28;20419;-60
2022/03/09 04:21:52;;;;;;;6.80;4.60;;;0.90;99.90;;;;;;5038154;28;20052;-61
2022/03/09 04:24:18;;;;;;;8.52;4.70;;;0.90;99.90;;;;;;5055299;28;20044;-60
2022/03/09 04:26:44;;;;;;;5.85;3.97;;;0.50;99.90;;;;;;5055461;28;20048;-60
2022/03/09 04:29:10;;;;;;;5.90;4.20;;;0.90;99.90;;;;;;5055759;28;20056;-60
2022/03/09 04:31:35;;;;;;;4.70;4.03;;;1.00;99.90;;;;;;5055128;28;20060;-60
2022/03/09 04:34:01;;;;;;;6.68;4.43;;;1.00;99.90;;;;;;5055502;28;20129;-60
2022/03/09 04:36:27;;;;;;;9.57;4.80;;;1.00;99.90;;;;;;5055706;28;20131;-60
2022/03/09 04:38:52;;;;;;;5.53;3.53;;;1.00;99.90;;;;;;5037224;28;20490;-60
2022/03/09 04:41:18;;;;;;;5.78;4.00;;;1.00;99.90;;;;;;5038118;28;20151;-60
2022/03/09 04:43:43;;;;;;;8.23;5.07;;;1.00;99.90;;;;;;5055440;28;20056;-60
2022/03/09 04:46:09;;;;;;;6.10;4.10;;;1.00;99.90;;;;;;5036587;28;20052;-60
2022/03/09 04:48:34;;;;;;;10.80;5.18;;;1.00;99.90;;;;;;5055874;28;20080;-60
2022/03/09 04:51:02;;;;;;;5.80;4.90;;;1.00;99.90;;;;;;5055563;28;20464;-60
2022/03/09 04:53:28;;;;;;;5.82;4.10;;;0.90;99.90;;;;;;5055476;28;20492;-60
2022/03/09 04:55:54;;;;;;;6.07;4.50;;;0.90;99.90;;;;;;5055736;28;20052;-60
2022/03/09 04:58:20;;;;;;;7.47;3.88;;;0.90;99.90;;;;;;5049562;28;20056;-60
2022/03/09 05:00:45;;;;;;;7.50;4.82;;;0.90;99.90;;;;;;5041432;28;20033;-60
2022/03/09 05:03:11;;;;;;;7.65;4.55;;;0.90;99.90;;;;;;5037199;28;20063;-60
2022/03/09 05:05:36;;;;;;;6.13;5.00;;;0.10;99.90;;;;;;5035645;28;20041;-60
2022/03/09 05:08:02;;;;;;;8.50;4.55;;;0.90;99.90;;;;;;5034651;28;20252;-59
2022/03/09 05:10:28;;;;;;;7.90;4.25;;;0.90;99.90;;;;;;5017405;28;20044;-60
2022/03/09 05:12:53;;;;;;;4.75;4.15;;;0.90;99.90;;;;;;5050609;28;20059;-60
2022/03/09 05:15:19;;;;;;;8.60;5.05;;;0.90;99.90;;;;;;5055008;28;20154;-59
2022/03/09 05:17:45;;;;;;;5.88;5.10;;;0.90;99.90;;;;;;5037806;28;20053;-60
2022/03/09 05:20:12;;;;;;;5.75;5.05;;;0.90;99.90;;;;;;5054805;28;20455;-60
2022/03/09 05:22:37;;;;;;;6.53;5.07;;;0.90;99.90;;;;;;5034067;28;20049;-60
2022/03/09 05:25:06;;;;;;;9.70;4.93;;;0.90;99.90;;;;;;5034568;28;20088;-61
2022/03/09 05:27:32;;;;;;;7.60;4.53;;;0.90;99.90;;;;;;5034351;28;20106;-60
2022/03/09 05:29:58;;;;;;;8.85;5.28;;;0.90;99.90;;;;;;5050448;28;20694;-60
2022/03/09 05:32:23;;;;;;;10.98;5.43;;;0.80;99.90;;;;;;5054255;28;20096;-61
2022/03/09 05:34:50;;;;;;;6.15;5.13;;;0.80;99.90;;;;;;5054271;28;20048;-60
2022/03/09 05:37:19;;;;;;;8.95;4.72;;;0.80;99.90;;;;;;5054746;28;20060;-60
2022/03/09 05:39:45;;;;;;;7.45;4.95;;;0.80;99.90;;;;;;5055279;28;20052;-61
2022/03/09 05:42:11;;;;;;;5.90;4.72;;;0.70;99.90;;;;;;5036107;28;20431;-61
2022/03/09 05:44:36;;;;;;;8.27;5.80;;;0.70;99.90;;;;;;5055390;28;20040;-60
2022/03/09 05:47:02;;;;;;;10.10;5.38;;;0.60;99.90;;;;;;5037025;28;20044;-60
2022/03/09 05:49:28;;;;;;;7.40;5.43;;;0.70;99.90;;;;;;5036766;28;20052;-60
2022/03/09 05:51:53;;;;;;;8.35;5.72;;;0.70;99.90;;;;;;5054943;28;20048;-60
2022/03/09 05:54:19;;;;;;;6.80;4.78;;;0.60;99.90;;;;;;5055025;28;20071;-60
2022/03/09 05:56:45;;;;;;;10.48;5.30;;;0.60;99.90;;;;;;5054809;28;20095;-60
2022/03/09 05:59:11;;;;;;;7.20;4.75;;;0.60;99.90;;;;;;5055007;28;20056;-60
2022/03/09 06:01:37;;;;;;;8.45;5.22;;;0.60;99.90;;;;;;5054516;28;20056;-60
2022/03/09 06:04:03;;;;;;;8.75;5.07;;;0.60;99.90;;;;;;5054227;28;20060;-61
2022/03/09 06:06:29;;;;;;;6.55;4.68;;;0.60;99.90;;;;;;5036288;28;20726;-60
2022/03/09 06:08:55;;;;;;;9.02;5.65;;;0.60;99.90;;;;;;5035471;28;20086;-60
2022/03/09 06:11:20;;;;;;;7.25;4.25;;;0.60;99.90;;;;;;5052960;28;20056;-60
2022/03/09 06:13:46;;;;;;;5.15;4.20;;;0.60;99.90;;;;;;5053501;28;20044;-60
2022/03/09 06:16:12;;;;;;;6.20;5.60;;;0.60;99.90;;;;;;5053434;28;20055;-60
2022/03/09 06:18:37;;;;;;;6.68;4.50;;;0.60;99.90;;;;;;5052743;28;20052;-60
2022/03/09 06:21:03;;;;;;;9.35;5.53;;;0.60;99.90;;;;;;5055669;28;20067;-60
2022/03/09 06:23:29;;;;;;;8.20;5.85;;;0.70;99.90;;;;;;5056495;28;20702;-60
2022/03/09 06:25:55;;;;;;;9.05;5.13;;;0.60;99.90;;;;;;5057770;28;20101;-60
2022/03/09 06:28:20;;;;;;;8.93;5.57;;;0.60;99.90;;;;;;5039592;28;20517;-60
2022/03/09 06:30:46;;;;;;;7.25;4.85;;;0.80;99.90;;;;;;5050877;28;20043;-60
2022/03/09 06:33:11;;;;;;;11.05;6.25;;;0.70;99.90;;;;;;5042504;28;20049;-60
2022/03/09 06:35:37;;;;;;;8.95;5.30;;;0.70;99.90;;;;;;5042508;28;20052;-60
2022/03/09 06:38:03;;;;;;;6.50;5.28;;;0.70;99.90;;;;;;5038478;28;20044;-60
2022/03/09 06:40:28;;;;;;;8.82;6.72;;;0.70;99.90;;;;;;5054276;28;20044;-60
2022/03/09 06:42:54;;;;;;;6.57;5.35;;;-0.40;99.90;;;;;;5054334;28;20044;-59
2022/03/09 06:45:20;;;;;;;8.57;6.07;;;0.70;99.90;;;;;;5054667;28;20044;-60
2022/03/09 06:47:45;;;;;;;12.73;5.82;;;0.80;99.90;;;;;;5055172;28;20044;-60
2022/03/09 06:50:11;;;;;;;8.90;5.22;;;0.80;99.90;;;;;;5026975;28;20060;-60
2022/03/09 06:52:38;;;;;;;12.75;5.55;;;0.80;99.90;;;;;;5034559;28;20479;-60
2022/03/09 06:55:07;;;;;;;9.07;5.93;;;0.90;99.90;;;;;;5041010;28;20121;-60
2022/03/09 06:57:33;;;;;;;7.78;6.20;;;0.90;99.90;;;;;;5050820;28;20049;-60
2022/03/09 07:00:00;;;;;;;12.65;6.55;;;0.90;99.90;;;;;;5054106;28;20040;-60
2022/03/09 07:02:26;;;;;;;8.75;5.50;;;1.00;99.90;;;;;;5055012;28;20045;-60
2022/03/09 07:04:51;;;;;;;6.57;5.22;;;1.00;99.90;;;;;;5052442;28;20048;-60
2022/03/09 07:07:17;;;;;;;6.95;4.97;;;1.10;99.90;;;;;;5015769;28;20782;-60
2022/03/09 07:09:42;;;;;;;5.90;4.25;;;1.20;99.90;;;;;;5016747;28;20547;-60
2022/03/09 07:12:08;;;;;;;7.05;5.57;;;1.20;99.90;;;;;;5043212;28;20052;-60
2022/03/09 07:14:34;;;;;;;10.38;5.55;;;1.30;99.90;;;;;;5035955;28;20051;-60
2022/03/09 07:17:00;;;;;;;12.38;6.13;;;1.30;99.90;;;;;;5055134;28;20060;-59
2022/03/09 07:19:26;;;;;;;7.68;6.10;;;1.80;99.90;;;;;;5054546;28;20342;-60
2022/03/09 07:21:53;;;;;;;8.55;5.50;;;1.50;99.90;;;;;;5035772;28;20631;-60
2022/03/09 07:24:20;;;;;;;8.98;5.85;;;1.60;99.90;;;;;;5047808;28;20091;-60
2022/03/09 07:26:45;;;;;;;10.95;6.50;;;1.70;99.90;;;;;;5041114;28;20122;-60
2022/03/09 07:29:11;;;;;;;8.93;6.00;;;1.80;99.90;;;;;;5022805;28;20053;-60
2022/03/09 07:31:37;;;;;;;10.57;7.13;;;1.90;99.90;;;;;;5039613;28;20122;-59
2022/03/09 07:34:03;;;;;;;7.10;5.90;;;2.00;99.90;;;;;;5040952;28;20048;-60
2022/03/09 07:36:34;;;;;;;8.26;6.04;;;2.10;99.90;;;;;;4530203;28;10001054;-60
2022/03/09 07:39:00;;;;;;;7.90;5.50;;;2.20;99.90;;;;;;5018189;28;20254;-59
2022/03/09 07:41:26;;;;;;;8.57;5.70;;;2.30;99.90;;;;;;5030973;28;20105;-59
2022/03/09 07:43:51;;;;;;;8.85;6.05;;;2.40;99.90;;;;;;5036065;28;20724;-59
2022/03/09 07:46:17;;;;;;;10.98;5.88;;;2.50;99.90;;;;;;5038264;28;20510;-60
2022/03/09 07:48:43;;;;;;;10.10;6.30;;;2.60;99.90;;;;;;5030056;28;20049;-59
2022/03/09 07:51:09;;;;;;;12.13;6.05;;;2.70;99.90;;;;;;5034820;28;20073;-59
2022/03/09 07:53:34;;;;;;;8.85;5.55;;;2.70;99.90;;;;;;5017258;28;20057;-60
2022/03/09 07:56:00;;;;;;;7.30;5.10;;;2.80;99.90;;;;;;5038583;28;20045;-59
2022/03/09 07:58:25;;;;;;;9.10;5.45;;;2.90;99.90;;;;;;5017883;28;20045;-59
2022/03/09 08:00:51;;;;;;;12.50;6.13;;;3.00;99.90;;;;;;5045501;28;20044;-59
2022/03/09 08:03:16;;;;;;;8.70;5.85;;;3.10;99.90;;;;;;5028448;28;20063;-59
2022/03/09 08:05:44;;;;;;;10.35;5.57;;;3.20;99.90;;;;;;5032222;28;20037;-60
2022/03/09 08:08:10;;;;;;;11.90;5.60;;;3.40;99.90;;;;;;5035067;28;20052;-59
2022/03/09 08:10:36;;;;;;;8.65;5.90;;;3.60;99.90;;;;;;5029221;28;20047;-59
2022/03/09 08:13:02;;;;;;;8.10;6.20;;;3.70;99.90;;;;;;5017767;28;20048;-60
2022/03/09 08:15:27;;;;;;;7.88;5.88;;;3.90;99.90;;;;;;5038592;28;20669;-60
2022/03/09 08:17:53;;;;;;;6.75;5.13;;;4.00;99.90;;;;;;5036799;28;20074;-60
2022/03/09 08:20:19;;;;;;;13.82;5.68;;;4.20;99.90;;;;;;5034515;28;20156;-60
2022/03/09 08:22:45;;;;;;;8.93;5.50;;;4.40;99.90;;;;;;5017648;28;20201;-59
2022/03/09 08:25:10;;;;;;;7.78;6.40;;;4.60;99.90;;;;;;5037282;28;20064;-60
2022/03/09 08:27:36;;;;;;;11.10;6.10;;;4.70;99.90;;;;;;5039537;28;20036;-60
2022/03/09 08:30:03;;;;;;;9.02;6.28;;;4.70;99.90;;;;;;5043625;28;20044;-60
2022/03/09 08:32:29;;;;;;;10.13;6.78;;;4.70;99.90;;;;;;5035138;28;20067;-60
2022/03/09 08:34:54;;;;;;;7.35;6.05;;;4.80;99.90;;;;;;5038106;28;20053;-60
2022/03/09 08:37:20;;;;;;;6.75;5.47;;;4.90;99.90;;;;;;5035565;28;20052;-60
2022/03/09 08:39:48;;;;;;;8.27;6.90;;;5.20;99.90;;;;;;5017386;28;20957;-60
2022/03/09 08:42:14;;;;;;;6.88;5.88;;;5.40;99.90;;;;;;5036434;28;20049;-60
2022/03/09 08:44:40;;;;;;;9.15;6.28;;;5.50;99.90;;;;;;5015926;28;20057;-61
2022/03/09 08:47:06;;;;;;;9.40;6.10;;;5.80;99.90;;;;;;5043454;28;20060;-61
2022/03/09 08:49:33;;;;;;;8.02;6.88;;;6.10;99.90;;;;;;5035296;28;20858;-60
2022/03/09 08:51:59;;;;;;;8.93;6.97;;;6.30;99.90;;;;;;5037687;28;20044;-58
2022/03/09 08:54:25;;;;;;;8.43;6.45;;;6.80;99.90;;;;;;5020618;28;20526;-61
2022/03/09 08:56:50;;;;;;;11.23;7.47;;;7.60;99.90;;;;;;5044591;28;20037;-61
2022/03/09 08:59:16;;;;;;;6.85;6.13;;;8.60;99.90;;;;;;5035516;28;20049;-61
2022/03/09 09:01:42;;;;;;;9.82;6.07;;;10.00;99.90;;;;;;4690185;28;9999740;-61
2022/03/09 09:04:08;;;;;;;9.40;6.15;;;11.50;99.50;;;;;;5033068;28;20908;-60
2022/03/09 09:06:34;;;;;;;7.53;6.65;;;12.50;96.40;;;;;;5032474;28;20117;-61
2022/03/09 09:08:59;;;;;;;11.63;6.30;;;13.40;94.30;;;;;;5033896;28;20256;-59
2022/03/09 09:11:25;;;;;;;9.75;6.80;;;14.10;92.20;;;;;;5018072;28;20546;-59
2022/03/09 09:13:51;;;;;;;9.75;6.10;;;14.70;90.40;;;;;;5052850;28;20049;-62
2022/03/09 09:16:17;;;;;;;7.82;5.82;;;15.20;86.30;;;;;;5052755;28;20816;-60
2022/03/09 09:18:43;;;;;;;7.70;6.75;;;15.70;82.40;;;;;;5053000;28;20044;-60
2022/03/09 09:21:10;;;;;;;8.75;5.57;;;16.10;79.10;;;;;;5052116;28;20867;-62
2022/03/09 09:23:38;;;;;;;9.20;6.53;;;16.40;75.20;;;;;;5052467;28;20047;-60
2022/03/09 09:26:04;;;;;;;8.50;6.70;;;16.70;76.40;;;;;;5052861;28;20110;-60
2022/03/09 09:28:30;;;;;;;10.32;6.47;;;17.10;75.10;;;;;;5048812;28;20072;-60
2022/03/09 09:30:56;;;;;;;12.30;6.03;;;16.80;73.10;;;;;;5044762;28;20300;-60
2022/03/09 09:33:22;;;;;;;8.63;6.15;;;17.10;72.70;;;;;;5050998;28;20056;-60
2022/03/09 09:35:48;;;;;;;8.75;7.68;;;17.00;70.60;;;;;;5051768;28;20056;-59
2022/03/09 09:38:15;;;;;;;8.80;7.03;;;17.10;69.80;;;;;;5043344;28;20067;-60
2022/03/09 09:40:43;;;;;;;8.90;6.30;;;17.00;68.20;;;;;;5047513;28;20834;-60
2022/03/09 09:43:18;;;;;;;9.60;6.68;;;16.90;66.40;;;;;;5052232;28;20052;-60
2022/03/09 09:45:44;;;;;;;8.60;6.80;;;16.80;64.90;;;;;;5052461;28;20051;-60
2022/03/09 09:48:11;;;;;;;11.43;6.97;;;16.90;66.00;;;;;;5051390;28;20037;-61
2022/03/09 09:50:39;;;;;;;9.25;6.45;;;17.10;65.00;;;;;;5052613;28;20060;-60
2022/03/09 09:53:07;;;;;;;7.50;6.07;;;17.70;63.50;;;;;;5051795;28;20048;-60
2022/03/09 09:55:33;;;;;;;7.32;5.70;;;18.10;60.80;;;;;;5052020;28;20044;-60
2022/03/09 09:58:00;;;;;;;8.57;6.07;;;18.80;58.90;;;;;;5055348;28;20484;-60
2022/03/09 10:00:26;;;;;;;7.63;5.97;;;18.10;54.80;;;;;;5055475;28;20036;-60
2022/03/09 10:02:52;;;;;;;7.10;5.75;;;18.20;55.30;;;;;;5036562;28;20055;-60
2022/03/09 10:05:19;;;;;;;7.03;6.18;;;18.50;53.90;;;;;;5055615;28;20040;-60
2022/03/09 10:08:03;;;;;;;7.38;5.97;;;18.80;53.60;;;;;;5037075;28;20104;-60
2022/03/09 10:10:33;;;;;;;7.47;5.57;;;18.80;45.30;;;;;;5037549;28;20075;-60
2022/03/09 10:13:22;;;;;;;8.13;5.93;;;19.20;51.00;;;;;;5037766;28;20058;-60
2022/03/09 10:16:05;;;;;;;7.28;5.63;;;19.80;50.10;;;;;;5055289;28;20048;-60
2022/03/09 10:18:31;;;;;;;;;;;20.00;50.20;;;;;;5044910;28;20140;-60
2022/03/09 10:21:14;;;;;;;8.05;7.25;;;19.60;41.90;;;;;;5039820;28;19973;-60
2022/03/09 10:24:05;;;;;;;9.18;6.47;;;20.10;44.30;;;;;;5028021;28;20482;-60
2022/03/09 10:26:45;;;;;;;8.88;5.72;;;20.00;44.00;;;;;;5043421;28;20087;-60
2022/03/09 10:29:13;;;;;;;8.25;6.30;;;19.80;43.80;;;;;;5028053;28;20055;-60
2022/03/09 10:31:43;;;;;;;8.07;6.18;;;20.00;44.20;;;;;;5047017;28;20056;-60
2022/03/09 10:34:11;;;;;;;7.13;6.38;;;20.10;43.70;;;;;;5045844;28;20043;-59
2022/03/09 10:36:38;;;;;;;8.35;6.53;;;20.90;44.30;;;;;;5042416;28;20175;-60
2022/03/09 10:39:14;;;;;;;9.15;6.85;;;21.20;42.90;;;;;;5042301;28;20594;-60
2022/03/09 10:41:40;;;;;;;9.75;6.97;;;21.30;41.70;;;;;;5045278;28;20057;-60
2022/03/09 10:44:06;;;;;;;7.85;6.80;;;21.30;41.20;;;;;;5019731;28;20445;-60
2022/03/09 10:46:47;;;;;;;9.25;6.30;;;21.30;41.00;;;;;;5042650;28;20044;-60
2022/03/09 10:49:16;;;;;;;7.28;6.50;;;21.00;40.60;;;;;;5057801;28;20666;-60
2022/03/09 10:51:44;;;;;;;8.93;6.07;;;20.90;41.10;;;;;;5057092;28;20037;-60
2022/03/09 10:54:20;;;;;;;9.60;6.85;;;20.20;40.70;;;;;;5057629;28;20059;-60
2022/03/09 10:56:46;;;;;;;6.70;6.05;;;19.00;41.00;;;;;;5054316;28;20057;-60
2022/03/09 10:59:24;;;;;;;10.27;6.70;;;17.20;41.40;;;;;;5037491;28;20057;-60
2022/03/09 11:02:04;;;;;;;7.72;6.22;;;16.20;42.80;;;;;;5056015;28;20056;-60
2022/03/09 11:04:30;;;;;;;7.63;5.63;;;15.10;43.30;;;;;;5056999;28;20044;-60
2022/03/09 11:06:57;;;;;;;9.48;6.25;;;14.40;44.30;;;;;;5055880;28;20033;-60
2022/03/09 11:09:22;;;;;;;9.13;6.60;;;13.90;44.50;;;;;;5045531;28;20041;-60
2022/03/09 11:11:49;;;;;;;8.23;6.90;;;13.40;44.80;;;;;;5041439;28;20085;-60
2022/03/09 11:14:16;;;;;;;10.07;7.40;;;13.10;45.70;;;;;;5039766;28;20163;-60
2022/03/09 11:16:42;;;;;;;9.50;7.00;;;12.90;46.30;;;;;;5039159;28;20125;-61
2022/03/09 11:19:10;;;;;;;7.30;6.07;;;12.80;46.40;;;;;;5056979;28;20424;-61
2022/03/09 11:21:36;;;;;;;7.93;6.32;;;12.50;46.20;;;;;;5057497;28;20036;-60
2022/03/09 11:24:14;;;;;;;8.18;6.07;;;12.30;46.80;;;;;;5051605;28;20049;-61
2022/03/09 11:26:46;;;;;;;8.70;5.60;;;12.20;47.30;;;;;;5018176;28;20769;-61
2022/03/09 11:29:12;;;;;;;9.27;7.20;;;12.00;47.80;;;;;;5023966;28;20049;-60
2022/03/09 11:31:59;;;;;;;6.93;5.57;;;11.90;48.60;;;;;;5054275;28;20063;-60
2022/03/09 11:34:41;;;;;;;7.35;5.60;;;11.90;49.00;;;;;;5055693;28;20083;-60
2022/03/09 11:37:18;;;;;;;10.65;6.70;;;11.90;49.20;;;;;;5056024;28;20053;-60
2022/03/09 11:40:04;;;;;;;10.77;5.70;;;11.80;49.40;;;;;;5037318;28;20930;-60
2022/03/09 11:42:34;;;;;;;10.52;7.30;;;11.80;49.40;;;;;;5055659;28;20045;-61
2022/03/09 11:45:15;;;;;;;9.68;6.78;;;11.80;50.10;;;;;;5055933;28;20079;-61
2022/03/09 11:48:01;;;;;;;8.52;6.18;;;11.90;50.50;;;;;;5054173;28;20048;-61
2022/03/09 11:50:28;;;;;;;8.43;6.07;;;11.80;50.50;;;;;;5054679;28;20055;-60
2022/03/09 11:53:08;;;;;;;8.48;6.72;;;11.90;50.80;;;;;;5055635;28;20348;-60
2022/03/09 11:55:35;;;;;;;8.70;5.88;;;12.00;50.30;;;;;;5054977;28;20051;-60
2022/03/09 11:58:02;;;;;;;10.68;6.65;;;12.00;49.90;;;;;;5056203;28;20052;-59
2022/03/09 12:00:28;;;;;;;11.25;7.05;;;11.90;50.10;;;;;;5054854;28;20047;-61
2022/03/09 12:02:56;;;;;;;8.65;6.38;;;11.90;50.10;;;;;;5043906;28;20045;-62
2022/03/09 12:05:27;;;;;;;8.50;6.13;;;12.00;50.40;;;;;;5035881;28;20111;-61
2022/03/09 12:07:58;;;;;;;9.25;5.97;;;12.10;51.20;;;;;;5036504;28;20157;-61
2022/03/09 12:10:47;;;;;;;10.70;6.55;;;12.10;51.20;;;;;;5035316;28;20045;-61
2022/03/09 12:13:44;;;;;;;10.80;6.40;;;12.10;51.20;;;;;;5052916;28;20876;-61
2022/03/09 12:16:14;;;;;;;9.85;6.50;;;12.20;52.00;;;;;;5054908;28;20048;-60
2022/03/09 12:19:10;;;;;;;11.13;6.05;;;12.20;51.20;;;;;;5054833;28;20048;-61
2022/03/09 12:21:38;;;;;;;8.60;5.70;;;12.30;51.20;;;;;;5015948;28;20786;-61
2022/03/09 12:24:06;;;;;;;11.70;6.53;;;12.30;50.90;;;;;;5054890;28;20861;-60
2022/03/09 12:26:54;;;;;;;7.88;6.00;;;12.30;50.60;;;;;;5055742;28;20502;-61
2022/03/09 12:29:23;;;;;;;6.47;5.03;;;12.40;51.00;;;;;;5054846;28;20052;-61
2022/03/09 12:32:02;;;;;;;10.85;6.03;;;12.40;51.10;;;;;;5055444;28;20891;-61
2022/03/09 12:34:36;;;;;;;8.15;5.38;;;12.40;50.60;;;;;;5055912;28;20060;-61
2022/03/09 12:37:05;;;;;;;11.52;5.88;;;12.50;50.50;;;;;;5037781;28;20048;-61
2022/03/09 12:39:31;;;;;;;8.10;6.13;;;12.50;50.60;;;;;;5037667;28;20060;-61
2022/03/09 12:41:58;;;;;;;12.52;7.03;;;12.50;49.90;;;;;;5055023;28;20820;-61
2022/03/09 12:44:28;;;;;;;9.75;6.80;;;12.50;49.60;;;;;;5054720;28;20139;-61
2022/03/09 12:46:54;;;;;;;5.88;5.03;;;12.50;48.70;;;;;;5055813;28;20519;-61
2022/03/09 12:49:34;;;;;;;8.02;6.07;;;12.50;48.70;;;;;;5037815;28;20044;-59
2022/03/09 12:52:14;;;;;;;9.05;6.78;;;12.70;49.10;;;;;;5055006;28;20091;-59
2022/03/09 12:54:44;;;;;;;7.57;5.90;;;12.80;48.70;;;;;;5055387;28;20056;-59